Time;durP1;ratioP1;P1;durP2;ratioP2;P2;SDS_P1;SDS_P2;PMS_P1;PMS_P2;Temp;Humidity;BMP_temperature;BMP_pressure;BME280_temperature;BME280_humidity;BME280_pressure;Samples;Min_cycle;Max_cycle;Signal;HPM_P1;HPM_P2
2023/07/29 00:02:07;;;;;;;6.72;5.47;;;;;;;16.87;100.00;100521.09;5026638;28;20029;-76
2023/07/29 00:04:33;;;;;;;4.82;4.10;;;;;;;16.95;100.00;100507.94;5024890;28;20453;-76
2023/07/29 00:06:58;;;;;;;4.93;4.53;;;;;;;17.05;100.00;100510.00;5021746;28;20029;-76
2023/07/29 00:09:26;;;;;;;6.53;4.43;;;;;;;17.04;100.00;100500.19;5021614;28;20035;-78
2023/07/29 00:11:51;;;;;;;4.88;4.38;;;;;;;17.15;100.00;100511.22;5024750;28;20026;-76
2023/07/29 00:14:17;;;;;;;4.80;4.40;;;;;;;17.21;100.00;100499.34;5024569;28;20075;-76
2023/07/29 00:16:42;;;;;;;5.20;4.40;;;;;;;17.20;100.00;100486.81;5026849;28;20469;-76
2023/07/29 00:19:09;;;;;;;4.68;4.10;;;;;;;17.26;100.00;100499.44;5026902;28;20034;-76
2023/07/29 00:21:36;;;;;;;4.50;4.03;;;;;;;17.34;100.00;100490.00;5026857;28;20029;-76
2023/07/29 00:24:01;;;;;;;4.80;4.30;;;;;;;17.42;100.00;100495.00;5024964;28;20041;-76
2023/07/29 00:26:28;;;;;;;5.00;4.50;;;;;;;17.50;100.00;100499.19;5024089;28;20056;-79
2023/07/29 00:28:55;;;;;;;4.50;4.20;;;;;;;17.49;100.00;100505.69;5024388;28;20037;-77
2023/07/29 00:31:21;;;;;;;5.13;4.45;;;;;;;17.47;100.00;100502.44;5028719;28;20040;-77
2023/07/29 00:33:46;;;;;;;5.35;4.45;;;;;;;17.54;100.00;100498.44;5025131;28;20397;-77
2023/07/29 00:36:11;;;;;;;5.18;4.13;;;;;;;17.56;100.00;100498.19;5022281;28;20030;-77
2023/07/29 00:38:37;;;;;;;4.30;3.90;;;;;;;17.52;100.00;100502.47;5019728;28;20076;-77
2023/07/29 00:41:03;;;;;;;4.90;4.50;;;;;;;17.51;100.00;100496.22;5022712;28;20037;-77
2023/07/29 00:43:28;;;;;;;4.90;4.35;;;;;;;17.50;100.00;100496.47;5019527;28;20026;-76
2023/07/29 00:45:54;;;;;;;4.20;3.80;;;;;;;17.43;100.00;100492.03;5017647;28;20423;-77
2023/07/29 00:48:24;;;;;;;5.35;4.20;;;;;;;17.28;100.00;100494.56;5023463;28;20028;-77
2023/07/29 00:50:49;;;;;;;4.28;3.88;;;;;;;17.21;100.00;100491.19;5009784;28;20043;-77
2023/07/29 00:53:15;;;;;;;7.43;4.45;;;;;;;17.11;100.00;100489.97;5023614;28;20026;-77
2023/07/29 00:55:41;;;;;;;5.68;4.05;;;;;;;17.08;100.00;100495.91;5004949;28;20029;-77
2023/07/29 00:58:07;;;;;;;5.10;4.60;;;;;;;16.89;100.00;100494.50;5009259;28;20442;-77
2023/07/29 01:00:32;;;;;;;5.30;4.40;;;;;;;16.76;100.00;100504.63;5006562;28;20029;-76
2023/07/29 01:02:58;;;;;;;5.28;4.88;;;;;;;16.69;100.00;100498.53;5026104;28;20041;-77
2023/07/29 01:05:23;;;;;;;5.20;4.70;;;;;;;16.68;100.00;100499.59;5022374;28;20021;-77
2023/07/29 01:08:00;;;;;;;5.05;4.55;;;;;;;16.72;100.00;100498.03;5004800;28;20108;-76
2023/07/29 01:10:56;;;;;;;5.28;4.78;;;;;;;16.70;100.00;100489.31;5009956;28;20080;-77
2023/07/29 01:13:27;;;;;;;5.20;4.80;;;;;;;16.70;100.00;100491.19;5023689;28;20025;-77
2023/07/29 01:15:53;;;;;;;5.25;4.75;;;;;;;16.70;100.00;100489.31;5000156;28;20030;-77
2023/07/29 01:18:25;;;;;;;5.50;5.00;;;;;;;16.74;100.00;100492.34;5026137;28;20026;-77
2023/07/29 01:20:53;;;;;;;5.43;4.70;;;;;;;16.70;100.00;100483.88;5004638;28;20047;-77
2023/07/29 01:23:26;;;;;;;5.90;4.82;;;;;;;16.76;100.00;100482.91;5007578;28;20047;-77
2023/07/29 01:25:51;;;;;;;5.00;4.60;;;;;;;16.86;100.00;100486.81;5023636;28;20523;-77
2023/07/29 01:28:17;;;;;;;5.25;4.75;;;;;;;16.91;100.00;100486.91;5027900;28;20021;-76
2023/07/29 01:30:43;;;;;;;6.65;5.25;;;;;;;16.94;100.00;100497.31;5024835;28;20030;-77
2023/07/29 01:33:16;;;;;;;5.10;4.70;;;;;;;16.99;100.00;100500.09;4987484;28;20101;-77
2023/07/29 01:36:03;;;;;;;5.07;4.68;;;;;;;16.84;100.00;100484.38;5008137;28;20085;-78
2023/07/29 01:38:34;;;;;;;5.53;5.00;;;;;;;16.82;100.00;100484.59;5023048;28;20112;-77
2023/07/29 01:41:01;;;;;;;5.50;5.00;;;;;;;16.77;100.00;100481.78;5020409;28;20088;-78
2023/07/29 01:43:30;;;;;;;5.82;5.32;;;;;;;16.74;100.00;100478.75;5023347;28;20030;-79
2023/07/29 01:45:56;;;;;;;5.22;4.72;;;;;;;16.73;100.00;100472.50;5007739;28;20029;-79
2023/07/29 01:48:21;;;;;;;5.90;5.35;;;;;;;16.78;100.00;100471.75;5028368;28;20474;-79
2023/07/29 01:50:47;;;;;;;5.57;5.07;;;;;;;16.81;100.00;100474.00;5026754;28;20038;-79
2023/07/29 01:53:12;;;;;;;5.63;5.18;;;;;;;16.83;100.00;100472.66;5027270;28;20100;-76
2023/07/29 01:55:38;;;;;;;5.82;5.32;;;;;;;16.78;100.00;100471.75;5014281;28;20506;-78
2023/07/29 01:58:04;;;;;;;5.65;5.15;;;;;;;16.77;100.00;100473.63;5023273;28;20036;-78
2023/07/29 02:00:29;;;;;;;5.78;5.28;;;;;;;16.78;100.00;100475.28;5006374;28;20026;-78
2023/07/29 02:02:54;;;;;;;5.55;5.05;;;;;;;16.79;100.00;100471.50;5021321;28;20377;-78
2023/07/29 02:05:20;;;;;;;5.93;5.43;;;;;;;16.70;100.00;100475.72;5025160;28;20032;-78
2023/07/29 02:07:45;;;;;;;5.88;5.38;;;;;;;16.57;100.00;100476.06;5021571;28;20329;-78
2023/07/29 02:10:10;;;;;;;6.88;5.60;;;;;;;16.57;100.00;100476.06;5021168;28;20030;-78
2023/07/29 02:12:36;;;;;;;6.97;5.75;;;;;;;16.55;100.00;100475.47;5031377;28;20037;-78
2023/07/29 02:15:01;;;;;;;6.07;5.47;;;;;;;16.58;100.00;100481.22;5031782;28;20032;-78
2023/07/29 02:17:27;;;;;;;6.00;5.45;;;;;;;16.62;100.00;100478.84;5031846;28;20044;-78
2023/07/29 02:19:53;;;;;;;6.30;5.72;;;;;;;16.65;100.00;100471.03;5042133;28;20043;-78
2023/07/29 02:22:19;;;;;;;5.88;5.38;;;;;;;16.68;100.00;100467.78;5046121;28;20020;-78
2023/07/29 02:24:44;;;;;;;5.90;5.40;;;;;;;16.75;100.00;100464.94;5024138;28;20021;-78
2023/07/29 02:27:10;;;;;;;6.05;5.25;;;;;;;16.86;100.00;100454.22;5032232;28;20041;-79
2023/07/29 02:29:36;;;;;;;5.78;5.28;;;;;;;16.97;100.00;100456.88;5033934;28;20120;-79
2023/07/29 02:32:01;;;;;;;5.30;4.90;;;;;;;17.04;100.00;100458.56;5026403;28;20071;-79
2023/07/29 02:34:27;;;;;;;5.40;4.55;;;;;;;17.00;100.00;100449.28;5026154;28;20575;-79
2023/07/29 02:36:52;;;;;;;5.82;5.30;;;;;;;16.88;100.00;100452.06;5028061;28;20381;-79
2023/07/29 02:39:18;;;;;;;5.95;5.45;;;;;;;16.75;100.00;100459.50;5027406;28;20030;-77
2023/07/29 02:41:43;;;;;;;6.82;5.05;;;;;;;16.82;100.00;100457.41;5031386;28;20036;-77
2023/07/29 02:44:09;;;;;;;5.85;5.28;;;;;;;16.94;100.00;100461.94;5030567;28;20059;-77
2023/07/29 02:46:34;;;;;;;6.25;5.20;;;;;;;16.89;100.00;100453.72;5027503;28;20025;-77
2023/07/29 02:49:01;;;;;;;6.07;5.57;;;;;;;16.86;100.00;100462.34;5025102;28;20033;-77
2023/07/29 02:51:26;;;;;;;7.20;5.68;;;;;;;16.81;100.00;100461.19;5027545;28;20022;-77
2023/07/29 02:53:52;;;;;;;6.95;5.65;;;;;;;16.81;100.00;100458.47;5029005;28;20027;-77
2023/07/29 02:56:17;;;;;;;8.15;5.45;;;;;;;16.90;100.00;100463.53;5030254;28;20040;-77
2023/07/29 02:58:43;;;;;;;6.25;5.40;;;;;;;16.91;100.00;100459.72;5024707;28;20035;-77
2023/07/29 03:01:08;;;;;;;6.10;5.13;;;;;;;16.94;100.00;100464.66;5012816;28;20041;-76
2023/07/29 03:03:34;;;;;;;5.88;5.38;;;;;;;16.91;100.00;100462.44;5024089;28;20031;-77
2023/07/29 03:06:04;;;;;;;6.15;5.28;;;;;;;16.85;100.00;100458.00;5024687;28;20037;-77
2023/07/29 03:08:29;;;;;;;6.47;5.88;;;;;;;16.75;100.00;100461.38;5030200;28;20052;-77
2023/07/29 03:10:55;;;;;;;6.03;5.53;;;;;;;16.69;100.00;100460.47;5031536;28;20029;-77
2023/07/29 03:13:21;;;;;;;7.25;5.32;;;;;;;16.74;100.00;100462.44;5023382;28;20057;-78
2023/07/29 03:15:46;;;;;;;6.28;5.68;;;;;;;16.72;100.00;100457.28;5022666;28;20036;-78
2023/07/29 03:18:12;;;;;;;6.50;5.82;;;;;;;16.64;100.00;100449.50;5033507;28;20491;-77
2023/07/29 03:20:37;;;;;;;9.48;6.72;;;;;;;16.53;100.00;100437.66;5022507;28;20029;-78
2023/07/29 03:23:02;;;;;;;6.90;6.20;;;;;;;16.59;100.00;100438.59;5029813;28;20054;-77
2023/07/29 03:25:28;;;;;;;7.00;6.35;;;;;;;16.57;100.00;100440.72;5020198;28;20030;-77
2023/07/29 03:27:54;;;;;;;7.57;5.95;;;;;;;16.48;100.00;100441.13;5019018;28;20125;-77
2023/07/29 03:30:21;;;;;;;7.10;6.40;;;;;;;16.55;100.00;100448.28;5026283;28;20091;-78
2023/07/29 03:32:46;;;;;;;7.22;6.63;;;;;;;16.59;100.00;100446.75;5022297;28;20087;-77
2023/07/29 03:35:11;;;;;;;7.13;6.43;;;;;;;16.65;100.00;100451.16;5022435;28;20022;-77
2023/07/29 03:37:37;;;;;;;6.88;6.22;;;;;;;16.68;100.00;100461.53;5015181;28;20491;-77
2023/07/29 03:40:02;;;;;;;7.28;6.55;;;;;;;16.67;100.00;100457.19;5023561;28;20026;-78
2023/07/29 03:42:28;;;;;;;7.18;6.50;;;;;;;16.69;100.00;100455.03;5027379;28;20602;-78
2023/07/29 03:44:53;;;;;;;7.03;6.40;;;;;;;16.66;100.00;100450.94;5020868;28;20429;-77
2023/07/29 03:47:19;;;;;;;6.78;6.18;;;;;;;16.77;100.00;100451.88;5021752;28;20436;-78
2023/07/29 03:49:44;;;;;;;7.13;6.50;;;;;;;16.83;100.00;100456.34;5021956;28;20022;-77
2023/07/29 03:52:10;;;;;;;6.78;6.18;;;;;;;16.89;100.00;100453.72;5030824;28;20543;-77
2023/07/29 03:54:35;;;;;;;7.18;6.50;;;;;;;16.90;100.00;100464.31;5025217;28;20022;-77
2023/07/29 03:57:01;;;;;;;7.88;7.18;;;;;;;16.96;100.00;100468.81;5016928;28;20056;-82
2023/07/29 03:59:26;;;;;;;8.20;7.00;;;;;;;16.94;100.00;100456.50;5022194;28;20029;-82
2023/07/29 04:01:51;;;;;;;8.75;7.85;;;;;;;16.93;100.00;100452.16;5023007;28;20021;-79
2023/07/29 04:04:17;;;;;;;8.90;7.75;;;;;;;16.93;100.00;100450.25;5022273;28;20038;-80
2023/07/29 04:06:42;;;;;;;9.02;8.13;;;;;;;16.91;100.00;100444.22;5030205;28;20040;-80
2023/07/29 04:09:08;;;;;;;9.85;8.95;;;;;;;16.90;100.00;100436.31;5022463;28;20422;-80
2023/07/29 04:11:33;;;;;;;10.95;8.82;;;;;;;16.95;100.00;100431.81;5008254;28;20063;-81
2023/07/29 04:13:59;;;;;;;11.18;8.32;;;;;;;16.97;100.00;100434.28;5021451;28;20108;-81
2023/07/29 04:16:24;;;;;;;9.50;8.50;;;;;;;16.87;100.00;100428.66;5024006;28;20080;-81
2023/07/29 04:18:49;;;;;;;9.23;8.27;;;;;;;16.91;100.00;100440.69;5026488;28;20021;-79
2023/07/29 04:21:15;;;;;;;10.57;9.57;;;;;;;16.74;100.00;100446.97;5022277;28;20033;-81
2023/07/29 04:23:40;;;;;;;10.15;9.15;;;;;;;16.69;100.00;100441.44;5028804;28;20037;-81
2023/07/29 04:26:06;;;;;;;10.52;9.30;;;;;;;16.63;100.00;100451.41;5021734;28;20059;-81
2023/07/29 04:28:31;;;;;;;11.52;8.98;;;;;;;16.73;100.00;100444.50;5029697;28;20033;-81
2023/07/29 04:30:57;;;;;;;9.13;7.97;;;;;;;16.85;100.00;100449.84;5029136;28;20041;-81
2023/07/29 04:33:22;;;;;;;8.60;7.70;;;;;;;16.96;100.00;100448.94;5027919;28;20377;-81
2023/07/29 04:35:48;;;;;;;9.63;7.97;;;;;;;16.91;100.00;100443.41;5028381;28;20040;-81
2023/07/29 04:38:13;;;;;;;8.50;7.40;;;;;;;16.89;100.00;100448.28;5028336;28;20025;-81
2023/07/29 04:40:38;;;;;;;9.05;7.10;;;;;;;16.91;100.00;100455.09;5021785;28;20034;-81
2023/07/29 04:43:04;;;;;;;8.50;7.50;;;;;;;16.90;100.00;100456.16;5019628;28;20048;-81
2023/07/29 04:45:29;;;;;;;7.80;6.85;;;;;;;16.97;100.00;100459.56;5021437;28;20319;-81
2023/07/29 04:47:55;;;;;;;10.18;7.38;;;;;;;16.83;100.00;100455.53;5031401;28;20093;-81
2023/07/29 04:50:21;;;;;;;8.23;7.13;;;;;;;16.83;100.00;100460.97;5019318;28;20084;-81
2023/07/29 04:52:46;;;;;;;8.68;6.68;;;;;;;16.70;100.00;100451.25;5022901;28;20027;-81
2023/07/29 04:55:11;;;;;;;7.22;6.18;;;;;;;16.79;100.00;100459.81;5021992;28;20044;-81
2023/07/29 04:57:37;;;;;;;6.80;6.13;;;;;;;16.94;100.00;100451.06;5030493;28;20025;-81
2023/07/29 05:00:03;;;;;;;7.00;6.30;;;;;;;17.01;100.00;100437.34;5015111;28;20026;-81
2023/07/29 05:02:28;;;;;;;6.35;5.75;;;;;;;16.99;100.00;100426.69;5024592;28;20026;-81
2023/07/29 05:04:54;;;;;;;8.20;6.25;;;;;;;17.06;99.68;100435.50;5016149;28;20021;-81
2023/07/29 05:07:19;;;;;;;6.53;5.82;;;;;;;17.09;98.85;100429.56;5020220;28;20392;-81
2023/07/29 05:09:44;;;;;;;6.88;5.80;;;;;;;17.13;98.09;100427.16;5032139;28;20026;-81
2023/07/29 05:12:10;;;;;;;6.88;6.18;;;;;;;17.13;98.31;100433.41;5016539;28;20037;-81
2023/07/29 05:14:35;;;;;;;7.78;5.95;;;;;;;17.16;97.56;100436.69;5010900;28;20113;-81
2023/07/29 05:17:00;;;;;;;8.40;6.28;;;;;;;17.20;95.90;100435.97;5027596;28;20060;-81
2023/07/29 05:19:29;;;;;;;7.35;5.93;;;;;;;17.19;95.95;100445.19;5028533;28;20032;-81
2023/07/29 05:21:56;;;;;;;6.65;5.97;;;;;;;17.21;95.44;100453.09;5017458;28;20112;-81
2023/07/29 05:24:21;;;;;;;6.20;5.45;;;;;;;17.17;95.16;100458.22;5022612;28;20050;-81
2023/07/29 05:26:46;;;;;;;6.50;5.75;;;;;;;16.93;96.09;100468.47;5029245;28;20120;-81
2023/07/29 05:29:12;;;;;;;6.45;5.20;;;;;;;17.07;95.73;100471.66;5030112;28;20029;-81
2023/07/29 05:31:37;;;;;;;6.03;5.30;;;;;;;17.17;95.29;100477.28;5017116;28;20516;-81
2023/07/29 05:34:05;;;;;;;7.32;5.80;;;;;;;17.25;93.90;100478.72;5022865;28;20036;-81
2023/07/29 05:36:31;;;;;;;8.30;5.47;;;;;;;17.32;92.95;100484.00;5019315;28;20061;-80
2023/07/29 05:38:56;;;;;;;5.90;4.95;;;;;;;17.23;92.91;100491.75;5023496;28;20017;-82
2023/07/29 05:41:22;;;;;;;5.30;4.70;;;;;;;17.12;92.23;100486.16;5025988;28;20021;-81
2023/07/29 05:43:47;;;;;;;5.68;4.97;;;;;;;17.12;92.07;100480.72;5016324;28;20033;-81
2023/07/29 05:46:12;;;;;;;5.32;4.60;;;;;;;17.23;91.14;100475.44;5023337;28;20036;-81
2023/07/29 05:48:38;;;;;;;5.97;4.05;;;;;;;17.42;88.81;100484.94;5030107;28;20037;-81
2023/07/29 05:51:05;;;;;;;4.15;3.75;;;;;;;17.62;87.07;100488.19;5030109;28;20472;-81
2023/07/29 05:53:30;;;;;;;5.25;3.83;;;;;;;17.79;85.67;100491.66;5027152;28;20036;-81
2023/07/29 05:55:56;;;;;;;4.75;3.83;;;;;;;17.75;84.49;100492.44;5021592;28;20034;-80
2023/07/29 05:58:21;;;;;;;3.97;3.60;;;;;;;17.57;85.40;100478.06;5033937;28;20021;-82
2023/07/29 06:00:47;;;;;;;5.55;3.67;;;;;;;17.60;84.79;100491.16;5027709;28;20765;-83
2023/07/29 06:03:12;;;;;;;5.30;3.70;;;;;;;17.48;85.04;100487.72;5023998;28;20029;-83
2023/07/29 06:05:38;;;;;;;5.72;3.88;;;;;;;17.54;84.90;100493.00;5043077;28;20033;-81
2023/07/29 06:08:04;;;;;;;4.32;3.40;;;;;;;17.48;83.36;100504.88;5038745;28;20087;-82
2023/07/29 06:10:29;;;;;;;3.92;3.60;;;;;;;17.66;82.86;100506.47;5037415;28;20029;-81
2023/07/29 06:12:54;;;;;;;6.00;3.95;;;;;;;17.51;83.39;100514.44;5029073;28;20022;-83
2023/07/29 06:15:22;;;;;;;5.35;3.70;;;;;;;17.51;83.79;100517.16;5036678;28;20025;-81
2023/07/29 06:17:47;;;;;;;4.13;3.72;;;;;;;17.56;82.94;100511.78;5031432;28;20454;-81
2023/07/29 06:20:13;;;;;;;5.40;3.88;;;;;;;17.34;83.77;100526.19;5023084;28;20057;-80
2023/07/29 06:22:38;;;;;;;5.40;4.05;;;;;;;17.32;84.06;100522.88;5027005;28;20401;-80
2023/07/29 06:25:04;;;;;;;5.38;4.03;;;;;;;17.38;83.78;100519.19;5022150;28;20033;-82
2023/07/29 06:27:29;;;;;;;5.00;4.03;;;;;;;17.50;83.39;100524.50;5014540;28;20033;-85
2023/07/29 06:29:55;;;;;;;6.00;4.35;;;;;;;17.29;83.76;100523.41;5021799;28;20413;-82
2023/07/29 06:32:20;;;;;;;6.05;5.10;;;;;;;17.35;85.00;100527.84;5021763;28;20030;-83
2023/07/29 06:34:45;;;;;;;8.73;4.43;;;;;;;17.47;83.87;100525.00;5030429;28;20037;-85
2023/07/29 06:37:11;;;;;;;4.80;4.30;;;;;;;17.65;83.56;100518.44;5030562;28;20075;-82
2023/07/29 06:39:36;;;;;;;7.15;4.60;;;;;;;17.89;82.24;100520.91;5031274;28;20099;-81
2023/07/29 06:42:02;;;;;;;5.63;4.75;;;;;;;17.86;81.44;100527.69;5022960;28;20026;-82
2023/07/29 06:44:27;;;;;;;5.43;4.80;;;;;;;17.96;81.84;100517.97;5013131;28;20116;-81
2023/07/29 06:46:52;;;;;;;7.40;4.45;;;;;;;18.16;80.54;100514.72;5028636;28;20034;-82
2023/07/29 06:49:18;;;;;;;5.43;4.55;;;;;;;18.83;78.63;100528.13;5028386;28;20491;-78
2023/07/29 06:51:43;;;;;;;7.25;5.00;;;;;;;19.29;75.57;100524.94;5017820;28;20432;-79
2023/07/29 06:54:09;;;;;;;8.23;4.93;;;;;;;19.44;74.43;100521.47;5032830;28;20040;-78
2023/07/29 06:56:34;;;;;;;9.02;5.18;;;;;;;19.05;76.44;100514.44;5004463;28;20362;-79
2023/07/29 06:59:00;;;;;;;7.00;5.18;;;;;;;19.12;76.91;100517.72;5016611;28;20034;-79
2023/07/29 07:01:26;;;;;;;5.22;4.50;;;;;;;19.07;76.22;100520.41;5026264;28;20096;-79
2023/07/29 07:03:54;;;;;;;8.38;4.95;;;;;;;19.26;75.27;100525.44;5033564;28;20037;-79
2023/07/29 07:06:20;;;;;;;6.07;4.75;;;;;;;19.73;73.48;100535.56;5015357;28;20045;-79
2023/07/29 07:08:46;;;;;;;6.15;4.40;;;;;;;20.38;70.78;100518.03;5023476;28;20021;-79
2023/07/29 07:11:11;;;;;;;6.00;4.60;;;;;;;20.37;70.80;100524.56;5013943;28;20038;-79
2023/07/29 07:13:37;;;;;;;6.50;4.50;;;;;;;20.39;70.33;100522.38;5031017;28;20055;-79
2023/07/29 07:16:02;;;;;;;6.97;4.95;;;;;;;20.43;69.96;100518.84;5024808;28;20026;-79
2023/07/29 07:18:27;;;;;;;7.07;4.78;;;;;;;20.44;68.96;100517.75;5021611;28;20493;-79
2023/07/29 07:20:53;;;;;;;6.05;4.90;;;;;;;20.18;70.93;100521.50;5019622;28;20030;-79
2023/07/29 07:23:18;;;;;;;5.35;4.30;;;;;;;20.73;69.52;100532.81;5033166;28;20037;-79
2023/07/29 07:25:44;;;;;;;7.10;4.63;;;;;;;20.90;69.57;100529.81;5032933;28;20536;-78
2023/07/29 07:28:09;;;;;;;5.38;4.60;;;;;;;20.91;69.09;100531.47;5023420;28;20068;-79
2023/07/29 07:30:35;;;;;;;7.57;4.68;;;;;;;20.31;71.15;100545.59;5031966;28;20070;-79
2023/07/29 07:33:01;;;;;;;6.47;4.53;;;;;;;20.29;70.60;100534.13;5006977;28;20026;-79
2023/07/29 07:35:26;;;;;;;6.07;4.35;;;;;;;20.27;70.91;100536.31;5024050;28;20034;-79
2023/07/29 07:37:52;;;;;;;6.30;4.78;;;;;;;20.33;70.13;100534.41;5032436;28;20367;-79
2023/07/29 07:40:17;;;;;;;5.47;4.45;;;;;;;19.89;71.49;100544.66;5030071;28;20021;-79
2023/07/29 07:42:42;;;;;;;5.78;4.45;;;;;;;19.63;73.00;100540.94;5020002;28;20079;-79
2023/07/29 07:45:08;;;;;;;6.45;4.90;;;;;;;19.79;72.69;100544.59;5021053;28;20100;-79
2023/07/29 07:47:33;;;;;;;5.82;4.28;;;;;;;20.98;68.56;100536.66;5020092;28;20425;-79
2023/07/29 07:49:59;;;;;;;6.07;4.57;;;;;;;20.79;67.98;100544.59;5023819;28;20457;-79
2023/07/29 07:52:24;;;;;;;6.07;4.15;;;;;;;21.51;66.12;100539.84;5023998;28;20033;-79
2023/07/29 07:54:53;;;;;;;5.38;4.43;;;;;;;22.27;63.46;100548.03;5028180;28;20037;-79
2023/07/29 07:57:20;;;;;;;6.45;4.53;;;;;;;21.70;65.34;100535.72;5017695;28;20026;-79
2023/07/29 07:59:45;;;;;;;5.90;4.50;;;;;;;21.92;64.26;100538.88;5026991;28;20544;-79
2023/07/29 08:02:11;;;;;;;6.13;4.22;;;;;;;22.66;62.45;100537.38;5018181;28;20034;-79
2023/07/29 08:04:36;;;;;;;6.13;4.28;;;;;;;24.79;55.54;100544.78;5028268;28;20036;-80
2023/07/29 08:07:01;;;;;;;4.57;3.53;;;;;;;25.43;53.03;100545.06;5024435;28;20029;-80
2023/07/29 08:09:27;;;;;;;4.75;3.70;;;;;;;25.58;51.37;100541.19;5023023;28;20129;-80
2023/07/29 08:11:52;;;;;;;5.28;3.90;;;;;;;24.62;54.98;100543.38;5028161;28;20034;-80
2023/07/29 08:14:17;;;;;;;5.05;3.88;;;;;;;24.96;53.47;100541.50;5020071;28;20029;-80
2023/07/29 08:16:43;;;;;;;4.53;3.30;;;;;;;26.06;50.77;100528.06;5027265;28;20028;-78
2023/07/29 08:19:09;;;;;;;3.75;3.05;;;;;;;26.53;49.39;100540.81;5019893;28;20022;-78
2023/07/29 08:21:35;;;;;;;4.05;3.22;;;;;;;26.55;48.96;100544.91;5026399;28;20108;-79
2023/07/29 08:24:02;;;;;;;3.50;3.17;;;;;;;26.55;48.94;100544.06;5013296;28;20061;-80
2023/07/29 08:26:27;;;;;;;4.63;3.42;;;;;;;26.85;48.51;100547.22;5018770;28;20144;-79
2023/07/29 08:28:53;;;;;;;4.68;3.10;;;;;;;26.48;49.47;100550.03;5022688;28;20029;-79
2023/07/29 08:31:18;;;;;;;4.18;2.92;;;;;;;26.66;49.48;100539.13;5019316;28;20025;-79
2023/07/29 08:33:43;;;;;;;3.20;2.90;;;;;;;27.63;47.02;100543.22;5027999;28;20389;-79
2023/07/29 08:36:09;;;;;;;3.72;2.90;;;;;;;28.40;45.12;100545.69;5045747;28;20029;-79
2023/07/29 08:38:34;;;;;;;3.42;2.90;;;;;;;28.71;43.65;100531.63;5026172;28;20512;-80
2023/07/29 08:41:13;;;;;;;4.25;2.90;;;;;;;28.18;44.12;100535.56;5029042;28;20075;-80
2023/07/29 08:43:39;;;;;;;4.75;2.72;;;;;;;27.84;45.23;100537.94;5018539;28;20458;-80
2023/07/29 08:46:06;;;;;;;3.70;2.95;;;;;;;27.04;47.09;100536.78;5021248;28;20120;-80
2023/07/29 08:48:37;;;;;;;3.25;2.95;;;;;;;25.95;49.67;100534.91;5017183;28;20030;-80
2023/07/29 08:51:03;;;;;;;3.00;2.70;;;;;;;27.04;47.30;100539.53;5019769;28;20064;-79
2023/07/29 08:53:28;;;;;;;3.33;2.67;;;;;;;27.12;47.51;100534.41;5008684;28;20470;-79
2023/07/29 08:55:55;;;;;;;5.00;3.08;;;;;;;25.58;50.66;100543.94;5026751;28;20041;-79
2023/07/29 08:58:21;;;;;;;4.38;3.47;;;;;;;24.71;52.46;100540.00;5021788;28;20036;-79
2023/07/29 09:00:46;;;;;;;4.15;3.30;;;;;;;24.14;54.72;100544.34;5007860;28;20468;-79
2023/07/29 09:03:12;;;;;;;4.00;3.25;;;;;;;22.81;59.21;100547.41;4992781;28;20044;-78
2023/07/29 09:05:37;;;;;;;3.10;2.80;;;;;;;24.40;55.94;100545.91;5022308;28;20435;-79
2023/07/29 09:08:03;;;;;;;3.92;3.25;;;;;;;24.84;54.14;100552.97;5020308;28;20030;-79
2023/07/29 09:10:29;;;;;;;2.95;2.67;;;;;;;24.13;55.54;100558.41;5001929;28;20540;-78
2023/07/29 09:12:54;;;;;;;3.40;2.80;;;;;;;24.19;55.29;100551.72;5025337;28;20025;-78
2023/07/29 09:15:26;;;;;;;3.35;3.05;;;;;;;23.05;58.26;100552.13;4981028;28;20038;-78
2023/07/29 09:17:52;;;;;;;3.10;2.80;;;;;;;23.07;59.38;100550.75;5024120;28;20029;-78
2023/07/29 09:20:23;;;;;;;3.95;3.00;;;;;;;22.98;59.17;100563.47;5001956;28;20030;-78
2023/07/29 09:22:49;;;;;;;4.25;3.22;;;;;;;22.70;59.88;100563.16;5030229;28;20121;-78
2023/07/29 09:25:16;;;;;;;3.53;2.80;;;;;;;22.31;61.60;100561.19;5032144;28;20523;-78
2023/07/29 09:27:41;;;;;;;3.20;2.90;;;;;;;21.70;62.79;100560.38;5002139;28;20089;-79
2023/07/29 09:30:08;;;;;;;3.95;3.22;;;;;;;21.62;63.44;100562.56;5039850;28;20037;-78
2023/07/29 09:32:33;;;;;;;3.13;2.85;;;;;;;21.45;64.24;100549.16;5003613;28;20029;-79
2023/07/29 09:34:59;;;;;;;3.63;3.30;;;;;;;21.53;64.64;100558.75;5033581;28;20025;-79
2023/07/29 09:37:24;;;;;;;4.07;3.60;;;;;;;21.07;66.13;100556.06;5025352;28;20034;-79
2023/07/29 09:39:50;;;;;;;3.92;3.53;;;;;;;20.71;67.97;100560.44;5001836;28;20017;-79
2023/07/29 09:42:22;;;;;;;4.70;3.80;;;;;;;20.65;67.83;100561.50;5025694;28;20436;-79
2023/07/29 09:44:48;;;;;;;5.95;3.92;;;;;;;20.48;69.00;100560.94;5016699;28;20030;-78
2023/07/29 09:47:21;;;;;;;4.38;3.97;;;;;;;20.54;69.38;100570.78;5021348;28;20037;-78
2023/07/29 09:49:46;;;;;;;4.57;4.18;;;;;;;20.45;70.05;100562.31;5030464;28;20137;-78
2023/07/29 09:52:12;;;;;;;4.20;3.80;;;;;;;20.65;69.65;100564.22;5029425;28;20037;-78
2023/07/29 09:54:37;;;;;;;4.55;4.10;;;;;;;20.67;69.30;100562.06;5006310;28;20108;-78
2023/07/29 09:57:07;;;;;;;4.22;3.63;;;;;;;20.91;68.74;100553.34;5028119;28;20032;-79
2023/07/29 09:59:35;;;;;;;4.10;3.70;;;;;;;21.34;66.91;100548.38;5027023;28;20135;-79
2023/07/29 10:02:01;;;;;;;4.20;3.63;;;;;;;21.42;66.37;100552.47;5029555;28;20022;-79
2023/07/29 10:04:26;;;;;;;4.20;3.80;;;;;;;21.49;66.68;100550.25;5013032;28;20389;-78
2023/07/29 10:06:52;;;;;;;3.88;3.58;;;;;;;22.03;64.29;100547.88;5008926;28;20496;-78
2023/07/29 10:09:17;;;;;;;3.40;3.10;;;;;;;22.11;64.53;100546.47;5019111;28;20034;-78
2023/07/29 10:11:43;;;;;;;3.33;3.00;;;;;;;22.15;64.76;100539.34;5014592;28;20474;-79
2023/07/29 10:14:08;;;;;;;2.72;2.22;;;;;;;22.36;63.26;100542.75;5022846;28;20026;-79
2023/07/29 10:16:36;;;;;;;3.65;2.40;;;;;;;22.55;61.94;100558.56;5022843;28;20029;-78
2023/07/29 10:19:01;;;;;;;2.28;2.08;;;;;;;23.19;61.13;100552.28;5022859;28;20084;-79
2023/07/29 10:21:26;;;;;;;2.70;2.20;;;;;;;23.84;58.00;100554.63;5012082;28;20034;-78
2023/07/29 10:23:53;;;;;;;2.58;2.10;;;;;;;25.02;54.47;100553.22;5008825;28;20385;-80
2023/07/29 10:26:19;;;;;;;2.58;1.92;;;;;;;25.31;54.12;100549.41;5023444;28;20053;-79
2023/07/29 10:28:46;;;;;;;2.20;2.00;;;;;;;25.58;52.13;100535.69;5026811;28;20042;-79
2023/07/29 10:31:12;;;;;;;2.35;2.15;;;;;;;24.54;54.26;100552.31;5004732;28;20022;-78
2023/07/29 10:33:37;;;;;;;2.42;1.90;;;;;;;23.92;55.26;100547.66;4992344;28;20019;-78
2023/07/29 10:36:03;;;;;;;3.03;2.50;;;;;;;23.17;57.67;100547.91;5011885;28;20025;-78
2023/07/29 10:38:28;;;;;;;4.72;2.20;;;;;;;22.98;60.58;100541.50;5001008;28;20109;-78
2023/07/29 10:40:56;;;;;;;6.10;2.40;;;;;;;23.09;59.40;100537.56;4987357;28;20159;-78
2023/07/29 10:43:32;;;;;;;2.47;2.20;;;;;;;23.57;57.95;100545.03;5022805;28;20041;-78
2023/07/29 10:46:16;;;;;;;2.53;2.10;;;;;;;23.46;57.19;100541.63;5031646;28;20032;-78
2023/07/29 10:48:42;;;;;;;3.58;2.55;;;;;;;22.86;59.24;100545.44;5017893;28;20033;-77
2023/07/29 10:51:29;;;;;;;3.50;2.00;;;;;;;23.36;58.13;100538.97;5023203;28;20029;-78
2023/07/29 10:53:59;;;;;;;2.63;1.90;;;;;;;23.80;56.63;100539.03;5029025;28;20067;-77
2023/07/29 10:56:34;;;;;;;3.03;2.00;;;;;;;23.82;56.07;100545.06;5026836;28;20408;-77
2023/07/29 10:59:12;;;;;;;3.90;2.20;;;;;;;24.10;56.36;100542.50;5031225;28;20541;-78
2023/07/29 11:01:39;;;;;;;2.63;2.10;;;;;;;23.78;56.58;100528.31;5024110;28;20496;-78
2023/07/29 11:04:20;;;;;;;2.17;1.98;;;;;;;24.67;53.97;100535.06;5029561;28;20030;-78
2023/07/29 11:07:03;;;;;;;2.22;2.03;;;;;;;24.83;54.41;100537.56;5022741;28;20036;-78
2023/07/29 11:09:50;;;;;;;2.60;2.00;;;;;;;24.75;54.95;100533.56;5023579;28;20029;-78
2023/07/29 11:12:47;;;;;;;2.50;2.33;;;;;;;24.13;55.26;100537.22;5026330;28;20497;-78
2023/07/29 11:15:12;;;;;;;2.53;2.33;;;;;;;23.81;56.70;100535.16;5034270;28;20040;-78
2023/07/29 11:18:08;;;;;;;2.53;2.20;;;;;;;23.72;56.99;100535.00;5024721;28;20029;-78
2023/07/29 11:20:34;;;;;;;2.47;2.30;;;;;;;23.84;56.14;100535.38;5014086;28;20092;-78